sensor_id;sensor_type;location;lat;lon;timestamp;P1;durP1;ratioP1;P2;durP2;ratioP2
14613;SDS011;7393;51.446;6.800;2023-02-03T00:00:23;15.87;;;11.63;;
14613;SDS011;7393;51.446;6.800;2023-02-03T00:02:52;16.60;;;12.80;;
14613;SDS011;7393;51.446;6.800;2023-02-03T00:05:19;20.87;;;12.57;;
14613;SDS011;7393;51.446;6.800;2023-02-03T00:07:48;19.67;;;11.50;;
14613;SDS011;7393;51.446;6.800;2023-02-03T00:10:15;23.23;;;12.83;;
14613;SDS011;7393;51.446;6.800;2023-02-03T00:12:45;19.63;;;11.97;;
14613;SDS011;7393;51.446;6.800;2023-02-03T00:15:12;16.63;;;11.47;;
14613;SDS011;7393;51.446;6.800;2023-02-03T00:17:39;20.20;;;11.73;;
14613;SDS011;7393;51.446;6.800;2023-02-03T00:20:06;16.03;;;11.40;;
14613;SDS011;7393;51.446;6.800;2023-02-03T00:22:33;21.83;;;11.63;;
14613;SDS011;7393;51.446;6.800;2023-02-03T00:25:01;15.20;;;11.43;;
14613;SDS011;7393;51.446;6.800;2023-02-03T00:27:29;19.77;;;12.07;;
14613;SDS011;7393;51.446;6.800;2023-02-03T00:29:56;18.83;;;12.53;;
14613;SDS011;7393;51.446;6.800;2023-02-03T00:32:23;13.43;;;11.50;;
14613;SDS011;7393;51.446;6.800;2023-02-03T00:34:50;17.30;;;12.67;;
14613;SDS011;7393;51.446;6.800;2023-02-03T00:37:17;20.13;;;12.07;;
14613;SDS011;7393;51.446;6.800;2023-02-03T00:39:43;17.03;;;12.70;;
14613;SDS011;7393;51.446;6.800;2023-02-03T00:42:12;16.83;;;12.23;;
14613;SDS011;7393;51.446;6.800;2023-02-03T00:44:38;16.93;;;11.40;;
14613;SDS011;7393;51.446;6.800;2023-02-03T00:47:05;16.47;;;12.33;;
14613;SDS011;7393;51.446;6.800;2023-02-03T00:49:32;18.73;;;12.33;;
14613;SDS011;7393;51.446;6.800;2023-02-03T00:51:59;23.03;;;13.20;;
14613;SDS011;7393;51.446;6.800;2023-02-03T00:54:25;19.30;;;13.77;;
14613;SDS011;7393;51.446;6.800;2023-02-03T00:56:52;20.50;;;13.30;;
14613;SDS011;7393;51.446;6.800;2023-02-03T00:59:20;22.73;;;13.27;;
14613;SDS011;7393;51.446;6.800;2023-02-03T01:01:47;17.67;;;12.23;;
14613;SDS011;7393;51.446;6.800;2023-02-03T01:04:15;18.57;;;12.33;;
14613;SDS011;7393;51.446;6.800;2023-02-03T01:06:41;22.40;;;12.93;;
14613;SDS011;7393;51.446;6.800;2023-02-03T01:09:08;16.47;;;11.63;;
14613;SDS011;7393;51.446;6.800;2023-02-03T01:11:35;15.30;;;11.97;;
14613;SDS011;7393;51.446;6.800;2023-02-03T01:14:02;18.07;;;12.40;;
14613;SDS011;7393;51.446;6.800;2023-02-03T01:16:30;19.20;;;11.83;;
14613;SDS011;7393;51.446;6.800;2023-02-03T01:19:00;20.97;;;11.73;;
14613;SDS011;7393;51.446;6.800;2023-02-03T01:21:27;16.93;;;12.33;;
14613;SDS011;7393;51.446;6.800;2023-02-03T01:23:53;16.17;;;11.13;;
14613;SDS011;7393;51.446;6.800;2023-02-03T01:26:22;17.20;;;10.90;;
14613;SDS011;7393;51.446;6.800;2023-02-03T01:28:50;19.97;;;12.33;;
14613;SDS011;7393;51.446;6.800;2023-02-03T01:31:18;14.87;;;10.53;;
14613;SDS011;7393;51.446;6.800;2023-02-03T01:33:48;21.20;;;10.77;;
14613;SDS011;7393;51.446;6.800;2023-02-03T01:36:18;14.37;;;10.20;;
14613;SDS011;7393;51.446;6.800;2023-02-03T01:38:46;18.40;;;11.13;;
14613;SDS011;7393;51.446;6.800;2023-02-03T01:41:13;16.13;;;10.43;;
14613;SDS011;7393;51.446;6.800;2023-02-03T01:43:42;17.40;;;11.07;;
14613;SDS011;7393;51.446;6.800;2023-02-03T01:46:16;14.93;;;10.80;;
14613;SDS011;7393;51.446;6.800;2023-02-03T01:48:51;15.37;;;11.00;;
14613;SDS011;7393;51.446;6.800;2023-02-03T01:51:19;17.97;;;10.37;;
14613;SDS011;7393;51.446;6.800;2023-02-03T01:53:47;15.37;;;10.13;;
14613;SDS011;7393;51.446;6.800;2023-02-03T01:56:14;14.23;;;10.10;;
14613;SDS011;7393;51.446;6.800;2023-02-03T01:58:42;20.63;;;11.10;;
14613;SDS011;7393;51.446;6.800;2023-02-03T02:01:11;15.80;;;10.83;;
14613;SDS011;7393;51.446;6.800;2023-02-03T02:03:39;13.63;;;10.17;;
14613;SDS011;7393;51.446;6.800;2023-02-03T02:06:11;14.23;;;9.67;;
14613;SDS011;7393;51.446;6.800;2023-02-03T02:08:39;15.27;;;10.47;;
14613;SDS011;7393;51.446;6.800;2023-02-03T02:11:08;16.33;;;10.37;;
14613;SDS011;7393;51.446;6.800;2023-02-03T02:13:35;15.17;;;10.83;;
14613;SDS011;7393;51.446;6.800;2023-02-03T02:16:05;16.80;;;9.57;;
14613;SDS011;7393;51.446;6.800;2023-02-03T02:18:39;13.60;;;9.27;;
14613;SDS011;7393;51.446;6.800;2023-02-03T02:21:31;14.53;;;9.50;;
14613;SDS011;7393;51.446;6.800;2023-02-03T02:24:24;16.20;;;9.97;;
14613;SDS011;7393;51.446;6.800;2023-02-03T02:27:25;18.37;;;9.10;;
14613;SDS011;7393;51.446;6.800;2023-02-03T02:33:14;12.80;;;8.40;;
14613;SDS011;7393;51.446;6.800;2023-02-03T02:35:54;15.73;;;8.90;;
14613;SDS011;7393;51.446;6.800;2023-02-03T02:38:25;15.53;;;8.20;;
14613;SDS011;7393;51.446;6.800;2023-02-03T02:41:04;13.70;;;8.40;;
14613;SDS011;7393;51.446;6.800;2023-02-03T02:43:38;10.53;;;7.30;;
14613;SDS011;7393;51.446;6.800;2023-02-03T02:46:08;13.00;;;7.50;;
14613;SDS011;7393;51.446;6.800;2023-02-03T02:48:40;10.60;;;7.13;;
14613;SDS011;7393;51.446;6.800;2023-02-03T02:51:11;11.03;;;7.57;;
14613;SDS011;7393;51.446;6.800;2023-02-03T02:53:41;12.77;;;6.90;;
14613;SDS011;7393;51.446;6.800;2023-02-03T02:56:11;12.97;;;7.17;;
14613;SDS011;7393;51.446;6.800;2023-02-03T02:58:41;12.67;;;6.90;;
14613;SDS011;7393;51.446;6.800;2023-02-03T03:01:12;9.00;;;6.00;;
14613;SDS011;7393;51.446;6.800;2023-02-03T03:03:42;12.07;;;6.07;;
14613;SDS011;7393;51.446;6.800;2023-02-03T03:06:10;8.80;;;5.93;;
14613;SDS011;7393;51.446;6.800;2023-02-03T03:08:40;9.60;;;5.47;;
14613;SDS011;7393;51.446;6.800;2023-02-03T03:11:10;10.23;;;5.40;;
14613;SDS011;7393;51.446;6.800;2023-02-03T03:13:38;12.03;;;5.57;;
14613;SDS011;7393;51.446;6.800;2023-02-03T03:16:09;11.57;;;5.37;;
14613;SDS011;7393;51.446;6.800;2023-02-03T03:18:38;11.03;;;5.20;;
14613;SDS011;7393;51.446;6.800;2023-02-03T03:21:10;9.57;;;5.90;;
14613;SDS011;7393;51.446;6.800;2023-02-03T03:23:41;11.23;;;5.77;;
14613;SDS011;7393;51.446;6.800;2023-02-03T03:26:13;8.17;;;5.60;;
14613;SDS011;7393;51.446;6.800;2023-02-03T03:28:44;7.30;;;5.00;;
14613;SDS011;7393;51.446;6.800;2023-02-03T03:31:13;11.63;;;5.47;;
14613;SDS011;7393;51.446;6.800;2023-02-03T03:33:42;11.40;;;5.40;;
14613;SDS011;7393;51.446;6.800;2023-02-03T03:36:11;12.60;;;5.70;;
14613;SDS011;7393;51.446;6.800;2023-02-03T03:38:47;8.37;;;5.43;;
14613;SDS011;7393;51.446;6.800;2023-02-03T03:41:20;11.43;;;5.10;;
14613;SDS011;7393;51.446;6.800;2023-02-03T03:43:54;10.10;;;5.00;;
14613;SDS011;7393;51.446;6.800;2023-02-03T03:46:26;8.20;;;4.60;;
14613;SDS011;7393;51.446;6.800;2023-02-03T03:48:59;13.70;;;6.50;;
14613;SDS011;7393;51.446;6.800;2023-02-03T03:51:29;8.27;;;4.80;;
14613;SDS011;7393;51.446;6.800;2023-02-03T03:54:00;10.17;;;4.80;;
14613;SDS011;7393;51.446;6.800;2023-02-03T03:56:31;11.13;;;5.03;;
14613;SDS011;7393;51.446;6.800;2023-02-03T03:59:01;8.23;;;4.83;;
14613;SDS011;7393;51.446;6.800;2023-02-03T04:01:30;9.20;;;4.40;;
14613;SDS011;7393;51.446;6.800;2023-02-03T04:04:01;11.60;;;5.10;;
14613;SDS011;7393;51.446;6.800;2023-02-03T04:06:31;9.80;;;4.17;;
14613;SDS011;7393;51.446;6.800;2023-02-03T04:08:57;11.03;;;4.47;;
14613;SDS011;7393;51.446;6.800;2023-02-03T04:11:26;9.73;;;5.50;;
14613;SDS011;7393;51.446;6.800;2023-02-03T04:14:10;11.93;;;4.70;;
14613;SDS011;7393;51.446;6.800;2023-02-03T04:16:37;6.60;;;4.37;;
14613;SDS011;7393;51.446;6.800;2023-02-03T04:19:05;9.77;;;4.20;;
14613;SDS011;7393;51.446;6.800;2023-02-03T04:21:32;9.90;;;4.37;;
14613;SDS011;7393;51.446;6.800;2023-02-03T04:23:59;8.93;;;4.70;;
14613;SDS011;7393;51.446;6.800;2023-02-03T04:26:25;9.57;;;4.67;;
14613;SDS011;7393;51.446;6.800;2023-02-03T04:28:52;9.30;;;4.83;;
14613;SDS011;7393;51.446;6.800;2023-02-03T04:31:19;9.30;;;4.60;;
14613;SDS011;7393;51.446;6.800;2023-02-03T04:33:45;10.47;;;4.90;;
14613;SDS011;7393;51.446;6.800;2023-02-03T04:36:14;10.20;;;4.33;;
14613;SDS011;7393;51.446;6.800;2023-02-03T04:38:40;9.97;;;4.60;;
14613;SDS011;7393;51.446;6.800;2023-02-03T04:41:07;8.60;;;4.57;;
14613;SDS011;7393;51.446;6.800;2023-02-03T04:43:34;8.03;;;4.20;;
14613;SDS011;7393;51.446;6.800;2023-02-03T04:46:01;8.37;;;4.30;;
14613;SDS011;7393;51.446;6.800;2023-02-03T04:48:27;10.10;;;4.60;;
14613;SDS011;7393;51.446;6.800;2023-02-03T04:50:54;7.57;;;4.20;;
14613;SDS011;7393;51.446;6.800;2023-02-03T04:53:26;10.33;;;4.20;;
14613;SDS011;7393;51.446;6.800;2023-02-03T04:55:53;7.03;;;4.07;;
14613;SDS011;7393;51.446;6.800;2023-02-03T04:58:20;7.43;;;4.10;;
14613;SDS011;7393;51.446;6.800;2023-02-03T05:00:47;10.90;;;4.70;;
14613;SDS011;7393;51.446;6.800;2023-02-03T05:03:14;10.50;;;4.30;;
14613;SDS011;7393;51.446;6.800;2023-02-03T05:05:40;9.77;;;4.33;;
14613;SDS011;7393;51.446;6.800;2023-02-03T05:08:07;8.47;;;4.47;;
14613;SDS011;7393;51.446;6.800;2023-02-03T05:10:35;5.77;;;3.60;;
14613;SDS011;7393;51.446;6.800;2023-02-03T05:13:02;8.40;;;4.13;;
14613;SDS011;7393;51.446;6.800;2023-02-03T05:15:29;8.33;;;3.87;;
14613;SDS011;7393;51.446;6.800;2023-02-03T05:17:56;11.07;;;4.57;;
14613;SDS011;7393;51.446;6.800;2023-02-03T05:20:22;7.93;;;3.70;;
14613;SDS011;7393;51.446;6.800;2023-02-03T05:22:49;10.17;;;3.70;;
14613;SDS011;7393;51.446;6.800;2023-02-03T05:25:16;10.83;;;4.10;;
14613;SDS011;7393;51.446;6.800;2023-02-03T05:27:44;11.80;;;3.50;;
14613;SDS011;7393;51.446;6.800;2023-02-03T05:30:11;12.00;;;3.40;;
14613;SDS011;7393;51.446;6.800;2023-02-03T05:32:38;9.57;;;3.43;;
14613;SDS011;7393;51.446;6.800;2023-02-03T05:35:05;7.00;;;3.50;;
14613;SDS011;7393;51.446;6.800;2023-02-03T05:37:32;6.97;;;3.00;;
14613;SDS011;7393;51.446;6.800;2023-02-03T05:39:59;10.70;;;3.50;;
14613;SDS011;7393;51.446;6.800;2023-02-03T05:42:46;9.20;;;3.20;;
14613;SDS011;7393;51.446;6.800;2023-02-03T05:45:12;9.33;;;3.30;;
14613;SDS011;7393;51.446;6.800;2023-02-03T05:47:39;9.70;;;2.80;;
14613;SDS011;7393;51.446;6.800;2023-02-03T05:50:06;8.83;;;3.43;;
14613;SDS011;7393;51.446;6.800;2023-02-03T05:52:33;8.50;;;3.10;;
14613;SDS011;7393;51.446;6.800;2023-02-03T05:55:00;9.77;;;2.87;;
14613;SDS011;7393;51.446;6.800;2023-02-03T05:57:27;6.53;;;3.30;;
14613;SDS011;7393;51.446;6.800;2023-02-03T05:59:55;8.90;;;2.73;;
14613;SDS011;7393;51.446;6.800;2023-02-03T06:02:22;8.23;;;3.03;;
14613;SDS011;7393;51.446;6.800;2023-02-03T06:04:48;6.13;;;2.80;;
14613;SDS011;7393;51.446;6.800;2023-02-03T06:07:15;14.03;;;3.40;;
14613;SDS011;7393;51.446;6.800;2023-02-03T06:09:42;8.07;;;2.80;;
14613;SDS011;7393;51.446;6.800;2023-02-03T06:12:09;7.30;;;2.90;;
14613;SDS011;7393;51.446;6.800;2023-02-03T06:14:35;7.20;;;3.00;;
14613;SDS011;7393;51.446;6.800;2023-02-03T06:17:04;7.13;;;2.50;;
14613;SDS011;7393;51.446;6.800;2023-02-03T06:19:30;6.67;;;2.60;;
14613;SDS011;7393;51.446;6.800;2023-02-03T06:21:57;10.97;;;3.20;;
14613;SDS011;7393;51.446;6.800;2023-02-03T06:24:24;13.30;;;3.40;;
14613;SDS011;7393;51.446;6.800;2023-02-03T06:26:50;6.10;;;3.07;;
14613;SDS011;7393;51.446;6.800;2023-02-03T06:29:17;7.97;;;2.80;;
14613;SDS011;7393;51.446;6.800;2023-02-03T06:31:44;7.87;;;2.97;;
14613;SDS011;7393;51.446;6.800;2023-02-03T06:34:12;7.03;;;3.13;;
14613;SDS011;7393;51.446;6.800;2023-02-03T06:36:39;8.23;;;3.50;;
14613;SDS011;7393;51.446;6.800;2023-02-03T06:39:06;8.10;;;2.40;;
14613;SDS011;7393;51.446;6.800;2023-02-03T06:41:32;6.93;;;2.33;;
14613;SDS011;7393;51.446;6.800;2023-02-03T06:43:59;5.63;;;2.13;;
14613;SDS011;7393;51.446;6.800;2023-02-03T06:46:26;7.00;;;2.80;;
14613;SDS011;7393;51.446;6.800;2023-02-03T06:48:54;7.70;;;2.60;;
14613;SDS011;7393;51.446;6.800;2023-02-03T06:51:22;7.23;;;2.60;;
14613;SDS011;7393;51.446;6.800;2023-02-03T06:53:49;10.40;;;3.00;;
14613;SDS011;7393;51.446;6.800;2023-02-03T06:56:16;7.50;;;2.97;;
14613;SDS011;7393;51.446;6.800;2023-02-03T06:58:43;5.30;;;2.50;;
14613;SDS011;7393;51.446;6.800;2023-02-03T07:01:10;10.33;;;2.70;;
14613;SDS011;7393;51.446;6.800;2023-02-03T07:03:37;7.40;;;2.70;;
14613;SDS011;7393;51.446;6.800;2023-02-03T07:06:04;5.13;;;2.40;;
14613;SDS011;7393;51.446;6.800;2023-02-03T07:08:32;7.33;;;2.87;;
14613;SDS011;7393;51.446;6.800;2023-02-03T07:10:59;7.07;;;2.50;;
14613;SDS011;7393;51.446;6.800;2023-02-03T07:13:26;7.80;;;2.30;;
14613;SDS011;7393;51.446;6.800;2023-02-03T07:15:53;8.97;;;2.87;;
14613;SDS011;7393;51.446;6.800;2023-02-03T07:18:19;5.67;;;2.67;;
14613;SDS011;7393;51.446;6.800;2023-02-03T07:20:48;6.80;;;2.93;;
14613;SDS011;7393;51.446;6.800;2023-02-03T07:23:15;6.77;;;2.70;;
14613;SDS011;7393;51.446;6.800;2023-02-03T07:25:44;7.73;;;2.80;;
14613;SDS011;7393;51.446;6.800;2023-02-03T07:28:10;8.27;;;3.20;;
14613;SDS011;7393;51.446;6.800;2023-02-03T07:30:37;8.90;;;2.63;;
14613;SDS011;7393;51.446;6.800;2023-02-03T07:33:04;6.43;;;2.47;;
14613;SDS011;7393;51.446;6.800;2023-02-03T07:35:32;7.03;;;2.80;;
14613;SDS011;7393;51.446;6.800;2023-02-03T07:37:58;9.90;;;3.20;;
14613;SDS011;7393;51.446;6.800;2023-02-03T07:40:25;8.40;;;2.90;;
14613;SDS011;7393;51.446;6.800;2023-02-03T07:42:53;6.10;;;2.63;;
14613;SDS011;7393;51.446;6.800;2023-02-03T07:45:20;6.73;;;2.80;;
14613;SDS011;7393;51.446;6.800;2023-02-03T07:47:48;7.20;;;2.60;;
14613;SDS011;7393;51.446;6.800;2023-02-03T07:50:15;8.20;;;3.03;;
14613;SDS011;7393;51.446;6.800;2023-02-03T07:52:42;9.20;;;3.27;;
14613;SDS011;7393;51.446;6.800;2023-02-03T07:55:09;7.50;;;2.97;;
14613;SDS011;7393;51.446;6.800;2023-02-03T07:57:36;5.33;;;2.90;;
14613;SDS011;7393;51.446;6.800;2023-02-03T08:00:10;4.07;;;2.17;;
14613;SDS011;7393;51.446;6.800;2023-02-03T08:02:38;8.23;;;2.90;;
14613;SDS011;7393;51.446;6.800;2023-02-03T08:05:05;9.63;;;3.03;;
14613;SDS011;7393;51.446;6.800;2023-02-03T08:07:32;7.13;;;2.70;;
14613;SDS011;7393;51.446;6.800;2023-02-03T08:09:59;5.10;;;2.30;;
14613;SDS011;7393;51.446;6.800;2023-02-03T08:12:26;5.77;;;2.63;;
14613;SDS011;7393;51.446;6.800;2023-02-03T08:14:53;8.03;;;2.47;;
14613;SDS011;7393;51.446;6.800;2023-02-03T08:17:22;6.60;;;2.27;;
14613;SDS011;7393;51.446;6.800;2023-02-03T08:19:49;7.43;;;2.60;;
14613;SDS011;7393;51.446;6.800;2023-02-03T08:22:15;8.40;;;2.43;;
14613;SDS011;7393;51.446;6.800;2023-02-03T08:24:43;8.10;;;2.70;;
14613;SDS011;7393;51.446;6.800;2023-02-03T08:27:10;6.50;;;2.33;;
14613;SDS011;7393;51.446;6.800;2023-02-03T08:29:38;4.60;;;2.63;;
14613;SDS011;7393;51.446;6.800;2023-02-03T08:32:07;5.80;;;2.60;;
14613;SDS011;7393;51.446;6.800;2023-02-03T08:34:36;9.43;;;2.60;;
14613;SDS011;7393;51.446;6.800;2023-02-03T08:37:03;6.77;;;2.50;;
14613;SDS011;7393;51.446;6.800;2023-02-03T08:39:31;6.57;;;2.70;;
14613;SDS011;7393;51.446;6.800;2023-02-03T08:41:59;4.93;;;2.50;;
14613;SDS011;7393;51.446;6.800;2023-02-03T08:44:27;8.87;;;2.63;;
14613;SDS011;7393;51.446;6.800;2023-02-03T08:46:55;6.77;;;2.60;;
14613;SDS011;7393;51.446;6.800;2023-02-03T08:49:22;8.20;;;2.83;;
14613;SDS011;7393;51.446;6.800;2023-02-03T08:51:52;6.37;;;2.80;;
14613;SDS011;7393;51.446;6.800;2023-02-03T08:54:20;10.27;;;3.00;;
14613;SDS011;7393;51.446;6.800;2023-02-03T08:56:47;6.10;;;2.83;;
14613;SDS011;7393;51.446;6.800;2023-02-03T08:59:14;8.17;;;2.57;;
14613;SDS011;7393;51.446;6.800;2023-02-03T09:01:41;9.03;;;2.60;;
14613;SDS011;7393;51.446;6.800;2023-02-03T09:04:09;5.57;;;2.60;;
14613;SDS011;7393;51.446;6.800;2023-02-03T09:06:37;5.97;;;2.37;;
14613;SDS011;7393;51.446;6.800;2023-02-03T09:09:05;12.03;;;3.27;;
14613;SDS011;7393;51.446;6.800;2023-02-03T09:11:32;8.83;;;2.57;;
14613;SDS011;7393;51.446;6.800;2023-02-03T09:13:59;6.53;;;2.47;;
14613;SDS011;7393;51.446;6.800;2023-02-03T09:16:25;7.10;;;2.60;;
14613;SDS011;7393;51.446;6.800;2023-02-03T09:18:52;7.03;;;2.70;;
14613;SDS011;7393;51.446;6.800;2023-02-03T09:21:19;5.03;;;2.50;;
14613;SDS011;7393;51.446;6.800;2023-02-03T09:23:46;6.60;;;2.60;;
14613;SDS011;7393;51.446;6.800;2023-02-03T09:26:14;9.20;;;2.60;;
14613;SDS011;7393;51.446;6.800;2023-02-03T09:28:41;12.50;;;2.80;;
14613;SDS011;7393;51.446;6.800;2023-02-03T09:31:08;9.80;;;2.80;;
14613;SDS011;7393;51.446;6.800;2023-02-03T09:33:36;6.37;;;2.60;;
14613;SDS011;7393;51.446;6.800;2023-02-03T09:36:04;7.07;;;2.73;;
14613;SDS011;7393;51.446;6.800;2023-02-03T09:38:32;6.63;;;2.90;;
14613;SDS011;7393;51.446;6.800;2023-02-03T09:41:00;4.20;;;2.63;;
14613;SDS011;7393;51.446;6.800;2023-02-03T09:43:34;5.17;;;2.50;;
14613;SDS011;7393;51.446;6.800;2023-02-03T09:46:05;7.33;;;2.50;;
14613;SDS011;7393;51.446;6.800;2023-02-03T09:48:37;5.87;;;2.70;;
14613;SDS011;7393;51.446;6.800;2023-02-03T09:51:12;8.20;;;3.00;;
14613;SDS011;7393;51.446;6.800;2023-02-03T09:53:47;5.93;;;2.70;;
14613;SDS011;7393;51.446;6.800;2023-02-03T09:56:17;7.70;;;3.00;;
14613;SDS011;7393;51.446;6.800;2023-02-03T09:58:49;8.57;;;3.10;;
14613;SDS011;7393;51.446;6.800;2023-02-03T10:01:16;7.93;;;3.57;;
14613;SDS011;7393;51.446;6.800;2023-02-03T10:03:47;12.23;;;3.20;;
14613;SDS011;7393;51.446;6.800;2023-02-03T10:06:20;5.80;;;2.50;;
14613;SDS011;7393;51.446;6.800;2023-02-03T10:08:58;6.53;;;3.17;;
14613;SDS011;7393;51.446;6.800;2023-02-03T10:11:37;5.93;;;2.77;;
14613;SDS011;7393;51.446;6.800;2023-02-03T10:14:27;7.00;;;2.87;;
14613;SDS011;7393;51.446;6.800;2023-02-03T10:17:11;9.27;;;3.13;;
14613;SDS011;7393;51.446;6.800;2023-02-03T10:19:48;9.57;;;2.80;;
14613;SDS011;7393;51.446;6.800;2023-02-03T10:22:24;7.87;;;2.50;;
14613;SDS011;7393;51.446;6.800;2023-02-03T10:24:53;7.03;;;2.83;;
14613;SDS011;7393;51.446;6.800;2023-02-03T10:27:24;10.33;;;3.03;;
14613;SDS011;7393;51.446;6.800;2023-02-03T10:29:55;8.53;;;3.03;;
14613;SDS011;7393;51.446;6.800;2023-02-03T10:32:26;5.33;;;2.57;;
14613;SDS011;7393;51.446;6.800;2023-02-03T10:34:53;6.03;;;2.90;;
14613;SDS011;7393;51.446;6.800;2023-02-03T10:37:22;7.30;;;3.03;;
14613;SDS011;7393;51.446;6.800;2023-02-03T10:39:53;6.90;;;3.00;;
14613;SDS011;7393;51.446;6.800;2023-02-03T10:42:20;7.00;;;3.33;;
14613;SDS011;7393;51.446;6.800;2023-02-03T10:44:48;8.47;;;3.03;;
14613;SDS011;7393;51.446;6.800;2023-02-03T10:47:24;8.63;;;2.70;;
14613;SDS011;7393;51.446;6.800;2023-02-03T10:49:58;8.40;;;3.13;;
14613;SDS011;7393;51.446;6.800;2023-02-03T10:52:30;9.03;;;2.77;;
14613;SDS011;7393;51.446;6.800;2023-02-03T10:54:58;9.30;;;2.93;;
14613;SDS011;7393;51.446;6.800;2023-02-03T10:57:29;6.73;;;3.00;;
14613;SDS011;7393;51.446;6.800;2023-02-03T11:00:03;6.63;;;2.87;;
14613;SDS011;7393;51.446;6.800;2023-02-03T11:02:33;6.07;;;2.60;;
14613;SDS011;7393;51.446;6.800;2023-02-03T11:05:08;8.40;;;3.17;;
14613;SDS011;7393;51.446;6.800;2023-02-03T11:07:37;7.83;;;2.80;;
14613;SDS011;7393;51.446;6.800;2023-02-03T11:10:10;8.97;;;3.27;;
14613;SDS011;7393;51.446;6.800;2023-02-03T11:12:53;9.17;;;3.27;;
14613;SDS011;7393;51.446;6.800;2023-02-03T11:15:42;11.60;;;3.40;;
14613;SDS011;7393;51.446;6.800;2023-02-03T11:18:31;11.67;;;3.60;;
14613;SDS011;7393;51.446;6.800;2023-02-03T11:21:05;7.93;;;3.40;;
14613;SDS011;7393;51.446;6.800;2023-02-03T11:23:37;7.40;;;3.47;;
14613;SDS011;7393;51.446;6.800;2023-02-03T11:26:11;12.20;;;3.60;;
14613;SDS011;7393;51.446;6.800;2023-02-03T11:28:41;6.43;;;2.90;;
14613;SDS011;7393;51.446;6.800;2023-02-03T11:31:16;7.87;;;2.90;;
14613;SDS011;7393;51.446;6.800;2023-02-03T11:33:48;10.50;;;3.27;;
14613;SDS011;7393;51.446;6.800;2023-02-03T11:36:19;8.57;;;3.70;;
14613;SDS011;7393;51.446;6.800;2023-02-03T11:38:46;8.00;;;3.70;;
14613;SDS011;7393;51.446;6.800;2023-02-03T11:41:14;8.57;;;3.17;;
14613;SDS011;7393;51.446;6.800;2023-02-03T11:43:42;9.23;;;3.53;;
14613;SDS011;7393;51.446;6.800;2023-02-03T11:46:09;8.30;;;3.20;;
14613;SDS011;7393;51.446;6.800;2023-02-03T11:48:36;10.10;;;3.87;;
14613;SDS011;7393;51.446;6.800;2023-02-03T11:51:12;9.10;;;3.37;;
14613;SDS011;7393;51.446;6.800;2023-02-03T11:53:50;7.40;;;3.03;;
14613;SDS011;7393;51.446;6.800;2023-02-03T11:56:31;6.10;;;2.97;;
14613;SDS011;7393;51.446;6.800;2023-02-03T11:59:22;9.50;;;3.50;;
14613;SDS011;7393;51.446;6.800;2023-02-03T12:02:03;10.67;;;3.47;;
14613;SDS011;7393;51.446;6.800;2023-02-03T12:05:05;7.53;;;3.03;;
14613;SDS011;7393;51.446;6.800;2023-02-03T12:10:58;8.33;;;3.13;;
14613;SDS011;7393;51.446;6.800;2023-02-03T12:13:36;8.00;;;2.93;;
14613;SDS011;7393;51.446;6.800;2023-02-03T12:16:20;6.43;;;2.87;;
14613;SDS011;7393;51.446;6.800;2023-02-03T12:19:13;10.37;;;3.60;;
14613;SDS011;7393;51.446;6.800;2023-02-03T12:21:48;6.20;;;3.00;;
14613;SDS011;7393;51.446;6.800;2023-02-03T12:24:25;10.33;;;3.37;;
14613;SDS011;7393;51.446;6.800;2023-02-03T12:27:05;7.63;;;3.33;;
14613;SDS011;7393;51.446;6.800;2023-02-03T12:29:44;11.03;;;3.40;;
14613;SDS011;7393;51.446;6.800;2023-02-03T12:32:18;9.13;;;3.23;;
14613;SDS011;7393;51.446;6.800;2023-02-03T12:34:51;10.03;;;3.47;;
14613;SDS011;7393;51.446;6.800;2023-02-03T12:37:22;10.60;;;3.60;;
14613;SDS011;7393;51.446;6.800;2023-02-03T12:39:54;14.07;;;3.90;;
14613;SDS011;7393;51.446;6.800;2023-02-03T12:42:25;9.40;;;3.40;;
14613;SDS011;7393;51.446;6.800;2023-02-03T12:44:56;9.53;;;3.60;;
14613;SDS011;7393;51.446;6.800;2023-02-03T12:47:28;5.53;;;3.17;;
14613;SDS011;7393;51.446;6.800;2023-02-03T12:50:02;9.50;;;3.27;;
14613;SDS011;7393;51.446;6.800;2023-02-03T12:52:32;8.83;;;3.50;;
14613;SDS011;7393;51.446;6.800;2023-02-03T12:55:07;7.50;;;3.37;;
14613;SDS011;7393;51.446;6.800;2023-02-03T12:57:43;8.13;;;3.50;;
14613;SDS011;7393;51.446;6.800;2023-02-03T13:00:20;10.60;;;3.80;;
14613;SDS011;7393;51.446;6.800;2023-02-03T13:02:58;10.23;;;3.77;;
14613;SDS011;7393;51.446;6.800;2023-02-03T13:05:34;10.47;;;4.93;;
14613;SDS011;7393;51.446;6.800;2023-02-03T13:08:10;9.23;;;3.73;;
14613;SDS011;7393;51.446;6.800;2023-02-03T13:10:45;9.27;;;3.50;;
14613;SDS011;7393;51.446;6.800;2023-02-03T13:13:16;5.43;;;3.17;;
14613;SDS011;7393;51.446;6.800;2023-02-03T13:15:51;9.10;;;3.70;;
14613;SDS011;7393;51.446;6.800;2023-02-03T13:18:22;10.47;;;4.37;;
14613;SDS011;7393;51.446;6.800;2023-02-03T13:20:52;7.67;;;3.83;;
14613;SDS011;7393;51.446;6.800;2023-02-03T13:23:19;10.27;;;3.70;;
14613;SDS011;7393;51.446;6.800;2023-02-03T13:25:52;10.03;;;3.70;;
14613;SDS011;7393;51.446;6.800;2023-02-03T13:31:32;7.70;;;3.50;;
14613;SDS011;7393;51.446;6.800;2023-02-03T13:34:20;7.33;;;3.63;;
14613;SDS011;7393;51.446;6.800;2023-02-03T13:40:00;11.10;;;3.40;;
14613;SDS011;7393;51.446;6.800;2023-02-03T13:42:45;7.90;;;2.97;;
14613;SDS011;7393;51.446;6.800;2023-02-03T13:45:19;6.70;;;3.00;;
14613;SDS011;7393;51.446;6.800;2023-02-03T13:47:51;7.30;;;2.70;;
14613;SDS011;7393;51.446;6.800;2023-02-03T13:50:20;6.03;;;2.73;;
14613;SDS011;7393;51.446;6.800;2023-02-03T13:52:53;8.27;;;2.93;;
14613;SDS011;7393;51.446;6.800;2023-02-03T13:55:27;9.43;;;3.27;;
14613;SDS011;7393;51.446;6.800;2023-02-03T13:57:57;8.20;;;3.43;;
14613;SDS011;7393;51.446;6.800;2023-02-03T14:03:41;8.87;;;3.40;;
14613;SDS011;7393;51.446;6.800;2023-02-03T14:09:23;8.13;;;3.17;;
14613;SDS011;7393;51.446;6.800;2023-02-03T14:15:02;8.10;;;2.80;;
14613;SDS011;7393;51.446;6.800;2023-02-03T14:17:53;7.50;;;3.07;;
14613;SDS011;7393;51.446;6.800;2023-02-03T14:23:44;14.67;;;2.80;;
14613;SDS011;7393;51.446;6.800;2023-02-03T14:26:18;13.77;;;2.73;;
14613;SDS011;7393;51.446;6.800;2023-02-03T14:28:49;15.00;;;3.33;;
14613;SDS011;7393;51.446;6.800;2023-02-03T14:31:18;18.47;;;3.43;;
14613;SDS011;7393;51.446;6.800;2023-02-03T14:33:53;14.50;;;3.30;;
14613;SDS011;7393;51.446;6.800;2023-02-03T14:36:31;13.73;;;3.00;;
14613;SDS011;7393;51.446;6.800;2023-02-03T14:39:37;15.10;;;3.23;;
14613;SDS011;7393;51.446;6.800;2023-02-03T14:42:31;20.13;;;3.20;;
14613;SDS011;7393;51.446;6.800;2023-02-03T14:45:24;21.30;;;3.70;;
14613;SDS011;7393;51.446;6.800;2023-02-03T14:48:06;19.33;;;3.73;;
14613;SDS011;7393;51.446;6.800;2023-02-03T14:50:47;19.67;;;3.87;;
14613;SDS011;7393;51.446;6.800;2023-02-03T14:53:28;11.93;;;3.03;;
14613;SDS011;7393;51.446;6.800;2023-02-03T14:56:12;14.40;;;3.47;;
14613;SDS011;7393;51.446;6.800;2023-02-03T14:58:51;21.67;;;3.20;;
14613;SDS011;7393;51.446;6.800;2023-02-03T15:01:22;20.97;;;4.17;;
14613;SDS011;7393;51.446;6.800;2023-02-03T15:06:50;16.23;;;3.60;;
14613;SDS011;7393;51.446;6.800;2023-02-03T15:09:20;18.23;;;3.80;;
14613;SDS011;7393;51.446;6.800;2023-02-03T15:11:51;16.80;;;4.20;;
14613;SDS011;7393;51.446;6.800;2023-02-03T15:14:19;12.17;;;3.67;;
14613;SDS011;7393;51.446;6.800;2023-02-03T15:16:49;19.37;;;4.70;;
14613;SDS011;7393;51.446;6.800;2023-02-03T15:19:24;21.40;;;4.90;;
14613;SDS011;7393;51.446;6.800;2023-02-03T15:21:53;20.30;;;4.17;;
14613;SDS011;7393;51.446;6.800;2023-02-03T15:24:20;16.90;;;4.20;;
14613;SDS011;7393;51.446;6.800;2023-02-03T15:26:50;15.33;;;4.17;;
14613;SDS011;7393;51.446;6.800;2023-02-03T15:29:18;18.23;;;5.27;;
14613;SDS011;7393;51.446;6.800;2023-02-03T15:31:49;22.07;;;4.50;;
14613;SDS011;7393;51.446;6.800;2023-02-03T15:34:22;15.47;;;4.17;;
14613;SDS011;7393;51.446;6.800;2023-02-03T15:36:55;20.30;;;5.93;;
14613;SDS011;7393;51.446;6.800;2023-02-03T15:39:30;20.13;;;5.53;;
14613;SDS011;7393;51.446;6.800;2023-02-03T15:42:03;21.10;;;5.37;;